sensor_id;sensor_type;location;lat;lon;timestamp;pressure;altitude;pressure_sealevel;temperature;humidity
26087;BME280;13851;43.434;28.338;2023-02-17T00:01:08;100711.56;;;5.35;100.00
26087;BME280;13851;43.434;28.338;2023-02-17T00:03:34;100717.19;;;5.22;100.00
26087;BME280;13851;43.434;28.338;2023-02-17T00:06:05;100715.81;;;5.28;100.00
26087;BME280;13851;43.434;28.338;2023-02-17T00:08:30;100759.88;;;5.31;100.00
26087;BME280;13851;43.434;28.338;2023-02-17T00:10:57;100619.34;;;4.90;100.00
26087;BME280;13851;43.434;28.338;2023-02-17T00:13:22;100720.59;;;5.35;100.00
26087;BME280;13851;43.434;28.338;2023-02-17T00:15:48;100644.59;;;5.13;100.00
26087;BME280;13851;43.434;28.338;2023-02-17T00:18:13;100706.19;;;5.24;100.00
26087;BME280;13851;43.434;28.338;2023-02-17T00:20:39;100675.09;;;5.05;100.00
26087;BME280;13851;43.434;28.338;2023-02-17T00:23:04;100699.34;;;5.40;100.00
26087;BME280;13851;43.434;28.338;2023-02-17T00:25:30;100735.78;;;5.27;100.00
26087;BME280;13851;43.434;28.338;2023-02-17T00:27:56;100310.69;;;2.98;100.00
26087;BME280;13851;43.434;28.338;2023-02-17T00:30:21;100700.78;;;5.01;100.00
26087;BME280;13851;43.434;28.338;2023-02-17T00:32:46;100285.31;;;2.65;100.00
26087;BME280;13851;43.434;28.338;2023-02-17T00:35:12;100632.38;;;4.53;100.00
26087;BME280;13851;43.434;28.338;2023-02-17T00:37:37;100280.25;;;2.38;100.00
26087;BME280;13851;43.434;28.338;2023-02-17T00:40:05;100690.41;;;5.06;100.00
26087;BME280;13851;43.434;28.338;2023-02-17T00:42:30;100621.59;;;4.85;100.00
26087;BME280;13851;43.434;28.338;2023-02-17T00:44:56;100684.41;;;5.35;100.00
26087;BME280;13851;43.434;28.338;2023-02-17T00:47:21;100724.03;;;5.48;100.00
26087;BME280;13851;43.434;28.338;2023-02-17T00:49:47;100599.81;;;5.07;100.00
26087;BME280;13851;43.434;28.338;2023-02-17T00:52:16;100674.59;;;5.55;100.00
26087;BME280;13851;43.434;28.338;2023-02-17T00:54:41;100615.44;;;5.15;100.00
26087;BME280;13851;43.434;28.338;2023-02-17T00:57:07;100641.72;;;5.26;100.00
26087;BME280;13851;43.434;28.338;2023-02-17T00:59:32;100669.09;;;5.34;100.00
26087;BME280;13851;43.434;28.338;2023-02-17T01:01:58;100663.19;;;5.29;100.00
26087;BME280;13851;43.434;28.338;2023-02-17T01:04:23;100543.56;;;4.55;100.00
26087;BME280;13851;43.434;28.338;2023-02-17T01:06:49;100609.00;;;4.84;100.00
26087;BME280;13851;43.434;28.338;2023-02-17T01:09:14;100294.59;;;3.07;100.00
26087;BME280;13851;43.434;28.338;2023-02-17T01:11:40;100572.28;;;4.68;100.00
26087;BME280;13851;43.434;28.338;2023-02-17T01:14:06;100629.56;;;5.09;100.00
26087;BME280;13851;43.434;28.338;2023-02-17T01:16:35;100615.28;;;4.84;100.00
26087;BME280;13851;43.434;28.338;2023-02-17T01:19:06;100278.59;;;2.82;100.00
26087;BME280;13851;43.434;28.338;2023-02-17T01:21:33;100659.06;;;4.91;100.00
26087;BME280;13851;43.434;28.338;2023-02-17T01:24:01;100634.94;;;4.77;100.00
26087;BME280;13851;43.434;28.338;2023-02-17T01:26:28;100633.19;;;4.76;100.00
26087;BME280;13851;43.434;28.338;2023-02-17T01:28:54;100299.75;;;2.99;100.00
26087;BME280;13851;43.434;28.338;2023-02-17T01:31:21;100515.00;;;4.28;100.00
26087;BME280;13851;43.434;28.338;2023-02-17T01:33:48;100681.28;;;4.96;100.00
26087;BME280;13851;43.434;28.338;2023-02-17T01:36:16;100492.22;;;4.20;100.00
26087;BME280;13851;43.434;28.338;2023-02-17T01:38:42;100625.22;;;5.06;100.00
26087;BME280;13851;43.434;28.338;2023-02-17T01:41:08;100564.44;;;4.43;100.00
26087;BME280;13851;43.434;28.338;2023-02-17T01:43:34;100324.09;;;3.10;100.00
26087;BME280;13851;43.434;28.338;2023-02-17T01:46:02;100624.78;;;4.90;100.00
26087;BME280;13851;43.434;28.338;2023-02-17T01:48:37;100580.09;;;4.51;100.00
26087;BME280;13851;43.434;28.338;2023-02-17T01:51:08;100607.81;;;5.09;100.00
26087;BME280;13851;43.434;28.338;2023-02-17T01:54:03;100484.75;;;4.44;100.00
26087;BME280;13851;43.434;28.338;2023-02-17T01:56:32;100286.69;;;3.38;100.00
26087;BME280;13851;43.434;28.338;2023-02-17T01:59:04;100602.44;;;5.30;100.00
26087;BME280;13851;43.434;28.338;2023-02-17T02:01:31;100549.75;;;4.89;100.00
26087;BME280;13851;43.434;28.338;2023-02-17T02:03:58;100255.72;;;3.08;100.00
26087;BME280;13851;43.434;28.338;2023-02-17T02:06:26;100559.38;;;4.93;100.00
26087;BME280;13851;43.434;28.338;2023-02-17T02:11:27;100563.09;;;4.92;100.00
26087;BME280;13851;43.434;28.338;2023-02-17T02:13:53;100550.75;;;4.56;100.00
26087;BME280;13851;43.434;28.338;2023-02-17T02:16:25;100581.53;;;4.55;100.00
26087;BME280;13851;43.434;28.338;2023-02-17T02:24:42;100634.47;;;4.49;100.00
26087;BME280;13851;43.434;28.338;2023-02-17T02:30:49;100590.81;;;4.52;100.00
26087;BME280;13851;43.434;28.338;2023-02-17T02:33:22;100586.88;;;4.56;100.00
26087;BME280;13851;43.434;28.338;2023-02-17T02:36:05;100324.59;;;3.16;100.00
26087;BME280;13851;43.434;28.338;2023-02-17T02:38:46;100469.97;;;4.05;100.00
26087;BME280;13851;43.434;28.338;2023-02-17T02:41:20;100222.75;;;2.36;100.00
26087;BME280;13851;43.434;28.338;2023-02-17T02:43:48;100121.41;;;1.73;100.00
26087;BME280;13851;43.434;28.338;2023-02-17T02:46:14;100538.09;;;4.00;100.00
26087;BME280;13851;43.434;28.338;2023-02-17T02:48:40;100565.94;;;3.91;100.00
26087;BME280;13851;43.434;28.338;2023-02-17T02:51:11;100206.72;;;2.11;100.00
26087;BME280;13851;43.434;28.338;2023-02-17T03:05:36;100589.69;;;4.66;100.00
26087;BME280;13851;43.434;28.338;2023-02-17T03:08:13;100583.41;;;4.54;100.00
26087;BME280;13851;43.434;28.338;2023-02-17T03:10:50;100595.31;;;4.74;100.00
26087;BME280;13851;43.434;28.338;2023-02-17T03:13:18;100581.13;;;4.82;100.00
26087;BME280;13851;43.434;28.338;2023-02-17T03:15:44;100565.25;;;4.55;100.00
26087;BME280;13851;43.434;28.338;2023-02-17T03:18:10;100645.78;;;4.88;100.00
26087;BME280;13851;43.434;28.338;2023-02-17T03:20:38;100480.03;;;4.25;100.00
26087;BME280;13851;43.434;28.338;2023-02-17T03:23:07;100299.75;;;3.33;100.00
26087;BME280;13851;43.434;28.338;2023-02-17T03:25:32;100575.09;;;4.78;100.00
26087;BME280;13851;43.434;28.338;2023-02-17T03:27:58;100546.44;;;5.17;100.00
26087;BME280;13851;43.434;28.338;2023-02-17T03:30:23;100533.84;;;5.16;100.00
26087;BME280;13851;43.434;28.338;2023-02-17T03:32:49;100538.81;;;5.32;100.00
26087;BME280;13851;43.434;28.338;2023-02-17T03:35:18;100540.78;;;5.72;100.00
26087;BME280;13851;43.434;28.338;2023-02-17T03:37:44;100555.84;;;5.97;100.00
26087;BME280;13851;43.434;28.338;2023-02-17T03:40:10;100582.34;;;6.25;100.00
26087;BME280;13851;43.434;28.338;2023-02-17T03:42:36;100563.28;;;5.95;100.00
26087;BME280;13851;43.434;28.338;2023-02-17T03:45:04;100562.75;;;5.80;100.00
26087;BME280;13851;43.434;28.338;2023-02-17T03:47:30;100575.41;;;5.70;100.00
26087;BME280;13851;43.434;28.338;2023-02-17T03:49:55;100577.41;;;5.47;100.00
26087;BME280;13851;43.434;28.338;2023-02-17T03:52:21;100579.66;;;5.84;100.00
26087;BME280;13851;43.434;28.338;2023-02-17T03:54:47;100560.09;;;5.90;100.00
26087;BME280;13851;43.434;28.338;2023-02-17T03:57:13;100574.84;;;6.18;100.00
26087;BME280;13851;43.434;28.338;2023-02-17T03:59:39;100550.41;;;5.97;100.00
26087;BME280;13851;43.434;28.338;2023-02-17T04:02:05;100476.28;;;5.43;100.00
26087;BME280;13851;43.434;28.338;2023-02-17T04:04:30;100503.19;;;5.98;100.00
26087;BME280;13851;43.434;28.338;2023-02-17T04:06:56;100544.50;;;6.22;100.00
26087;BME280;13851;43.434;28.338;2023-02-17T04:09:21;100523.00;;;6.10;100.00
26087;BME280;13851;43.434;28.338;2023-02-17T04:11:47;100500.06;;;5.82;100.00
26087;BME280;13851;43.434;28.338;2023-02-17T04:14:12;100548.28;;;6.01;100.00
26087;BME280;13851;43.434;28.338;2023-02-17T04:16:38;100177.09;;;3.74;100.00
26087;BME280;13851;43.434;28.338;2023-02-17T04:19:05;100544.19;;;5.85;100.00
26087;BME280;13851;43.434;28.338;2023-02-17T04:21:31;100140.56;;;3.36;100.00
26087;BME280;13851;43.434;28.338;2023-02-17T04:23:59;100555.41;;;5.92;100.00
26087;BME280;13851;43.434;28.338;2023-02-17T04:26:25;100529.13;;;5.81;100.00
26087;BME280;13851;43.434;28.338;2023-02-17T04:28:50;100536.16;;;5.84;100.00
26087;BME280;13851;43.434;28.338;2023-02-17T04:31:16;100164.06;;;3.68;100.00
26087;BME280;13851;43.434;28.338;2023-02-17T04:33:41;100557.94;;;6.14;100.00
26087;BME280;13851;43.434;28.338;2023-02-17T04:36:07;100551.66;;;6.23;100.00
26087;BME280;13851;43.434;28.338;2023-02-17T04:38:33;100571.25;;;6.17;100.00
26087;BME280;13851;43.434;28.338;2023-02-17T04:41:00;100499.88;;;5.43;100.00
26087;BME280;13851;43.434;28.338;2023-02-17T04:43:26;100559.03;;;5.81;100.00
26087;BME280;13851;43.434;28.338;2023-02-17T04:45:53;100393.94;;;4.59;100.00
26087;BME280;13851;43.434;28.338;2023-02-17T04:48:18;100512.84;;;4.98;100.00
26087;BME280;13851;43.434;28.338;2023-02-17T04:50:44;100539.56;;;5.13;100.00
26087;BME280;13851;43.434;28.338;2023-02-17T04:53:10;100576.22;;;5.40;100.00
26087;BME280;13851;43.434;28.338;2023-02-17T04:55:36;100557.72;;;5.34;100.00
26087;BME280;13851;43.434;28.338;2023-02-17T04:58:02;100509.50;;;4.94;100.00
26087;BME280;13851;43.434;28.338;2023-02-17T05:00:27;100577.84;;;5.52;100.00
26087;BME280;13851;43.434;28.338;2023-02-17T05:02:53;100572.09;;;5.25;100.00
26087;BME280;13851;43.434;28.338;2023-02-17T05:05:18;100577.34;;;5.05;100.00
26087;BME280;13851;43.434;28.338;2023-02-17T05:07:47;100524.94;;;4.93;100.00
26087;BME280;13851;43.434;28.338;2023-02-17T05:10:14;100628.50;;;5.21;100.00
26087;BME280;13851;43.434;28.338;2023-02-17T05:12:40;100579.53;;;5.11;100.00
26087;BME280;13851;43.434;28.338;2023-02-17T05:15:06;100571.78;;;5.39;100.00
26087;BME280;13851;43.434;28.338;2023-02-17T05:17:32;100598.03;;;5.70;100.00
26087;BME280;13851;43.434;28.338;2023-02-17T05:19:58;100582.69;;;5.90;100.00
26087;BME280;13851;43.434;28.338;2023-02-17T05:22:23;100565.56;;;6.20;100.00
26087;BME280;13851;43.434;28.338;2023-02-17T05:24:49;100578.59;;;6.67;100.00
26087;BME280;13851;43.434;28.338;2023-02-17T05:27:14;100543.22;;;6.76;100.00
26087;BME280;13851;43.434;28.338;2023-02-17T05:29:40;100345.28;;;5.90;100.00
26087;BME280;13851;43.434;28.338;2023-02-17T05:32:05;100577.50;;;7.47;100.00
26087;BME280;13851;43.434;28.338;2023-02-17T05:34:31;100505.97;;;7.16;100.00
26087;BME280;13851;43.434;28.338;2023-02-17T05:36:57;100554.03;;;7.93;100.00
26087;BME280;13851;43.434;28.338;2023-02-17T05:39:22;100562.75;;;8.06;100.00
26087;BME280;13851;43.434;28.338;2023-02-17T05:41:48;100589.91;;;7.98;100.00
26087;BME280;13851;43.434;28.338;2023-02-17T05:44:13;100546.53;;;8.04;100.00
26087;BME280;13851;43.434;28.338;2023-02-17T05:46:39;100582.16;;;8.03;100.00
26087;BME280;13851;43.434;28.338;2023-02-17T05:49:04;100560.44;;;7.64;100.00
26087;BME280;13851;43.434;28.338;2023-02-17T05:51:30;100304.50;;;5.90;100.00
26087;BME280;13851;43.434;28.338;2023-02-17T05:53:56;100218.63;;;5.58;100.00
26087;BME280;13851;43.434;28.338;2023-02-17T05:56:21;100532.34;;;7.44;100.00
26087;BME280;13851;43.434;28.338;2023-02-17T05:58:47;100585.09;;;7.72;100.00
26087;BME280;13851;43.434;28.338;2023-02-17T06:01:13;100596.00;;;7.72;100.00
26087;BME280;13851;43.434;28.338;2023-02-17T06:03:39;100608.78;;;7.62;100.00
26087;BME280;13851;43.434;28.338;2023-02-17T06:06:05;100539.06;;;7.40;100.00
26087;BME280;13851;43.434;28.338;2023-02-17T06:08:31;100613.69;;;7.59;100.00
26087;BME280;13851;43.434;28.338;2023-02-17T06:10:57;100548.97;;;7.41;100.00
26087;BME280;13851;43.434;28.338;2023-02-17T06:13:23;100543.41;;;7.43;100.00
26087;BME280;13851;43.434;28.338;2023-02-17T06:15:48;100499.53;;;6.88;100.00
26087;BME280;13851;43.434;28.338;2023-02-17T06:18:14;100594.44;;;7.41;100.00
26087;BME280;13851;43.434;28.338;2023-02-17T06:20:39;100587.84;;;7.14;100.00
26087;BME280;13851;43.434;28.338;2023-02-17T06:23:05;100589.56;;;7.44;100.00
26087;BME280;13851;43.434;28.338;2023-02-17T06:25:31;100560.59;;;7.24;100.00
26087;BME280;13851;43.434;28.338;2023-02-17T06:27:56;100587.13;;;7.41;100.00
26087;BME280;13851;43.434;28.338;2023-02-17T06:30:22;100562.16;;;7.36;100.00
26087;BME280;13851;43.434;28.338;2023-02-17T06:32:49;100585.25;;;7.42;100.00
26087;BME280;13851;43.434;28.338;2023-02-17T06:35:14;100550.13;;;7.29;100.00
26087;BME280;13851;43.434;28.338;2023-02-17T06:37:40;100566.75;;;7.65;100.00
26087;BME280;13851;43.434;28.338;2023-02-17T06:40:06;100578.47;;;7.94;100.00
26087;BME280;13851;43.434;28.338;2023-02-17T06:42:32;100460.06;;;7.21;100.00
26087;BME280;13851;43.434;28.338;2023-02-17T06:45:01;100550.59;;;7.91;100.00
26087;BME280;13851;43.434;28.338;2023-02-17T06:47:32;100525.38;;;7.79;100.00
26087;BME280;13851;43.434;28.338;2023-02-17T06:49:58;100472.34;;;7.54;100.00
26087;BME280;13851;43.434;28.338;2023-02-17T06:52:23;100622.38;;;8.01;100.00
26087;BME280;13851;43.434;28.338;2023-02-17T06:54:49;100566.41;;;7.87;100.00
26087;BME280;13851;43.434;28.338;2023-02-17T06:57:15;100587.09;;;8.64;100.00
26087;BME280;13851;43.434;28.338;2023-02-17T06:59:41;100515.25;;;8.36;100.00
26087;BME280;13851;43.434;28.338;2023-02-17T07:02:12;100528.66;;;8.57;100.00
26087;BME280;13851;43.434;28.338;2023-02-17T07:04:41;100571.19;;;9.23;100.00
26087;BME280;13851;43.434;28.338;2023-02-17T07:07:08;100581.34;;;9.48;100.00
26087;BME280;13851;43.434;28.338;2023-02-17T07:09:34;100552.59;;;9.26;100.00
26087;BME280;13851;43.434;28.338;2023-02-17T07:12:00;100587.59;;;9.41;100.00
26087;BME280;13851;43.434;28.338;2023-02-17T07:14:26;100599.06;;;9.62;100.00
26087;BME280;13851;43.434;28.338;2023-02-17T07:16:52;100585.53;;;9.60;100.00
26087;BME280;13851;43.434;28.338;2023-02-17T07:19:17;100589.00;;;9.62;100.00
26087;BME280;13851;43.434;28.338;2023-02-17T07:21:43;100634.53;;;9.89;100.00
26087;BME280;13851;43.434;28.338;2023-02-17T07:24:09;100480.13;;;9.22;100.00
26087;BME280;13851;43.434;28.338;2023-02-17T07:26:36;100598.09;;;9.71;100.00
26087;BME280;13851;43.434;28.338;2023-02-17T07:29:02;100576.34;;;9.87;100.00
26087;BME280;13851;43.434;28.338;2023-02-17T07:31:28;100588.09;;;9.62;100.00
26087;BME280;13851;43.434;28.338;2023-02-17T07:33:53;100560.63;;;9.89;100.00
26087;BME280;13851;43.434;28.338;2023-02-17T07:36:19;100601.34;;;9.93;100.00
26087;BME280;13851;43.434;28.338;2023-02-17T07:38:44;100523.00;;;9.92;100.00
26087;BME280;13851;43.434;28.338;2023-02-17T07:41:13;100599.25;;;10.30;100.00
26087;BME280;13851;43.434;28.338;2023-02-17T07:43:38;100537.38;;;10.20;100.00
26087;BME280;13851;43.434;28.338;2023-02-17T07:46:05;100631.00;;;10.49;100.00
26087;BME280;13851;43.434;28.338;2023-02-17T07:48:31;100580.56;;;10.60;100.00
26087;BME280;13851;43.434;28.338;2023-02-17T07:51:06;100392.84;;;9.03;100.00
26087;BME280;13851;43.434;28.338;2023-02-17T07:53:33;100587.59;;;10.62;100.00
26087;BME280;13851;43.434;28.338;2023-02-17T07:56:02;100554.03;;;10.60;100.00
26087;BME280;13851;43.434;28.338;2023-02-17T07:58:30;100568.47;;;10.71;100.00
26087;BME280;13851;43.434;28.338;2023-02-17T08:00:56;100615.84;;;10.63;100.00
26087;BME280;13851;43.434;28.338;2023-02-17T08:03:21;100438.88;;;9.94;100.00
26087;BME280;13851;43.434;28.338;2023-02-17T08:05:47;100541.00;;;10.62;100.00
26087;BME280;13851;43.434;28.338;2023-02-17T08:08:16;100618.38;;;10.90;100.00
26087;BME280;13851;43.434;28.338;2023-02-17T08:11:00;100577.13;;;10.58;100.00
26087;BME280;13851;43.434;28.338;2023-02-17T08:13:44;100648.16;;;10.85;100.00
26087;BME280;13851;43.434;28.338;2023-02-17T08:16:10;100650.56;;;10.88;100.00
26087;BME280;13851;43.434;28.338;2023-02-17T08:18:35;100617.97;;;10.77;100.00
26087;BME280;13851;43.434;28.338;2023-02-17T08:21:01;100617.72;;;10.97;100.00
26087;BME280;13851;43.434;28.338;2023-02-17T08:23:26;100458.09;;;10.10;100.00
26087;BME280;13851;43.434;28.338;2023-02-17T08:25:56;100601.59;;;10.93;100.00
26087;BME280;13851;43.434;28.338;2023-02-17T08:28:21;100582.53;;;10.76;100.00
26087;BME280;13851;43.434;28.338;2023-02-17T08:30:47;100610.06;;;11.25;100.00
26087;BME280;13851;43.434;28.338;2023-02-17T08:33:12;100577.16;;;11.25;100.00
26087;BME280;13851;43.434;28.338;2023-02-17T08:35:43;100508.56;;;10.92;100.00
26087;BME280;13851;43.434;28.338;2023-02-17T08:38:09;100306.13;;;9.89;100.00
26087;BME280;13851;43.434;28.338;2023-02-17T08:40:34;100603.41;;;11.76;100.00
26087;BME280;13851;43.434;28.338;2023-02-17T08:42:59;100575.47;;;11.56;100.00
26087;BME280;13851;43.434;28.338;2023-02-17T08:45:25;100525.88;;;11.09;100.00
26087;BME280;13851;43.434;28.338;2023-02-17T08:47:51;100577.00;;;11.34;100.00
26087;BME280;13851;43.434;28.338;2023-02-17T08:50:16;100670.16;;;11.68;100.00
26087;BME280;13851;43.434;28.338;2023-02-17T08:52:44;100568.75;;;11.18;100.00
26087;BME280;13851;43.434;28.338;2023-02-17T08:55:11;100675.66;;;11.77;100.00
26087;BME280;13851;43.434;28.338;2023-02-17T08:57:37;100344.09;;;9.93;100.00
26087;BME280;13851;43.434;28.338;2023-02-17T09:00:04;100590.72;;;11.51;100.00
26087;BME280;13851;43.434;28.338;2023-02-17T09:02:30;100617.50;;;11.81;100.00
26087;BME280;13851;43.434;28.338;2023-02-17T09:04:56;100562.25;;;11.43;100.00
26087;BME280;13851;43.434;28.338;2023-02-17T09:07:21;100625.25;;;11.86;100.00
26087;BME280;13851;43.434;28.338;2023-02-17T09:09:47;100623.03;;;11.89;100.00
26087;BME280;13851;43.434;28.338;2023-02-17T09:12:12;100623.88;;;12.06;100.00
26087;BME280;13851;43.434;28.338;2023-02-17T09:14:38;100519.91;;;11.62;100.00
26087;BME280;13851;43.434;28.338;2023-02-17T09:17:04;100595.88;;;12.19;100.00
26087;BME280;13851;43.434;28.338;2023-02-17T09:19:30;100557.13;;;11.89;100.00
26087;BME280;13851;43.434;28.338;2023-02-17T09:21:56;100565.66;;;12.19;100.00
26087;BME280;13851;43.434;28.338;2023-02-17T09:24:22;100580.84;;;12.46;100.00
26087;BME280;13851;43.434;28.338;2023-02-17T09:26:47;100576.34;;;12.61;100.00
26087;BME280;13851;43.434;28.338;2023-02-17T09:29:13;100216.53;;;10.49;100.00
26087;BME280;13851;43.434;28.338;2023-02-17T09:31:38;100575.81;;;12.58;100.00
26087;BME280;13851;43.434;28.338;2023-02-17T09:34:04;100569.28;;;12.67;100.00
26087;BME280;13851;43.434;28.338;2023-02-17T09:36:33;100602.16;;;12.91;100.00
26087;BME280;13851;43.434;28.338;2023-02-17T09:39:01;100602.94;;;13.39;100.00
26087;BME280;13851;43.434;28.338;2023-02-17T09:41:47;100600.72;;;13.81;100.00
26087;BME280;13851;43.434;28.338;2023-02-17T09:44:59;100272.78;;;12.18;100.00
26087;BME280;13851;43.434;28.338;2023-02-17T09:47:23;100580.19;;;13.45;100.00
26087;BME280;13851;43.434;28.338;2023-02-17T09:50:01;100652.75;;;13.98;100.00
26087;BME280;13851;43.434;28.338;2023-02-17T09:52:44;100596.19;;;14.25;100.00
26087;BME280;13851;43.434;28.338;2023-02-17T10:00:41;100574.22;;;14.02;97.99
26087;BME280;13851;43.434;28.338;2023-02-17T10:03:24;100531.63;;;13.90;97.85
26087;BME280;13851;43.434;28.338;2023-02-17T10:06:14;100594.66;;;14.23;97.63
26087;BME280;13851;43.434;28.338;2023-02-17T10:11:43;100594.22;;;14.64;93.74
26087;BME280;13851;43.434;28.338;2023-02-17T10:14:20;100589.19;;;14.82;96.01
26087;BME280;13851;43.434;28.338;2023-02-17T10:19:58;100516.34;;;14.62;90.17
26087;BME280;13851;43.434;28.338;2023-02-17T10:22:26;100330.47;;;13.98;91.19
26087;BME280;13851;43.434;28.338;2023-02-17T10:24:52;100569.31;;;15.44;88.00
26087;BME280;13851;43.434;28.338;2023-02-17T10:32:59;100577.06;;;15.34;84.82
26087;BME280;13851;43.434;28.338;2023-02-17T10:40:49;100546.91;;;14.96;87.78
26087;BME280;13851;43.434;28.338;2023-02-17T10:43:21;100599.94;;;15.49;87.94
26087;BME280;13851;43.434;28.338;2023-02-17T10:45:48;100376.06;;;14.73;83.43
26087;BME280;13851;43.434;28.338;2023-02-17T10:48:20;100449.94;;;15.64;82.16
26087;BME280;13851;43.434;28.338;2023-02-17T10:50:47;100554.22;;;16.74;78.80
26087;BME280;13851;43.434;28.338;2023-02-17T10:53:15;100489.84;;;16.58;70.64
26087;BME280;13851;43.434;28.338;2023-02-17T11:01:11;100557.28;;;16.57;64.96
26087;BME280;13851;43.434;28.338;2023-02-17T11:03:37;100518.50;;;16.44;66.37
26087;BME280;13851;43.434;28.338;2023-02-17T11:06:18;100500.75;;;16.73;68.01
26087;BME280;13851;43.434;28.338;2023-02-17T11:08:48;100194.78;;;15.23;63.21
26087;BME280;13851;43.434;28.338;2023-02-17T11:11:20;100543.63;;;17.85;59.72
26087;BME280;13851;43.434;28.338;2023-02-17T11:19:02;100528.16;;;18.75;53.41
26087;BME280;13851;43.434;28.338;2023-02-17T11:21:29;100246.88;;;17.02;52.26
26087;BME280;13851;43.434;28.338;2023-02-17T11:24:04;100548.06;;;17.46;54.56
26087;BME280;13851;43.434;28.338;2023-02-17T11:26:34;100593.41;;;17.32;58.11
26087;BME280;13851;43.434;28.338;2023-02-17T11:29:17;100547.13;;;17.19;59.30
26087;BME280;13851;43.434;28.338;2023-02-17T11:32:00;100544.19;;;16.73;60.85
26087;BME280;13851;43.434;28.338;2023-02-17T11:34:28;100535.97;;;16.93;62.63
26087;BME280;13851;43.434;28.338;2023-02-17T11:39:41;100515.03;;;17.64;57.23
26087;BME280;13851;43.434;28.338;2023-02-17T11:44:53;100537.75;;;18.73;53.78
26087;BME280;13851;43.434;28.338;2023-02-17T11:47:41;100525.47;;;19.00;52.18
26087;BME280;13851;43.434;28.338;2023-02-17T11:50:21;100475.56;;;18.87;51.15
26087;BME280;13851;43.434;28.338;2023-02-17T12:09:06;100524.59;;;19.06;50.21
26087;BME280;13851;43.434;28.338;2023-02-17T12:37:00;100520.16;;;19.93;45.65
26087;BME280;13851;43.434;28.338;2023-02-17T12:42:01;100552.03;;;19.91;45.00
26087;BME280;13851;43.434;28.338;2023-02-17T12:44:32;100521.66;;;19.64;45.04
26087;BME280;13851;43.434;28.338;2023-02-17T12:47:07;100493.44;;;19.29;46.22
26087;BME280;13851;43.434;28.338;2023-02-17T12:49:44;100493.56;;;19.47;47.13
26087;BME280;13851;43.434;28.338;2023-02-17T12:52:49;100186.28;;;17.90;46.47
26087;BME280;13851;43.434;28.338;2023-02-17T12:55:19;100520.72;;;20.02;45.46
26087;BME280;13851;43.434;28.338;2023-02-17T12:58:10;100526.44;;;20.32;46.30
26087;BME280;13851;43.434;28.338;2023-02-17T13:00:43;100499.97;;;20.23;44.32
26087;BME280;13851;43.434;28.338;2023-02-17T13:03:11;100525.97;;;20.10;44.42
26087;BME280;13851;43.434;28.338;2023-02-17T13:05:50;100525.38;;;20.26;45.02
26087;BME280;13851;43.434;28.338;2023-02-17T13:11:02;100523.19;;;19.92;46.34
26087;BME280;13851;43.434;28.338;2023-02-17T13:13:31;100505.97;;;19.45;44.94
26087;BME280;13851;43.434;28.338;2023-02-17T13:16:14;100518.28;;;19.24;45.85
26087;BME280;13851;43.434;28.338;2023-02-17T13:18:42;100477.19;;;18.50;48.76
26087;BME280;13851;43.434;28.338;2023-02-17T13:21:16;100558.03;;;18.66;49.78
26087;BME280;13851;43.434;28.338;2023-02-17T13:23:44;100541.84;;;18.50;49.88
26087;BME280;13851;43.434;28.338;2023-02-17T13:28:42;100519.34;;;17.74;51.06
26087;BME280;13851;43.434;28.338;2023-02-17T13:31:17;100475.34;;;16.56;51.86
26087;BME280;13851;43.434;28.338;2023-02-17T13:33:46;100453.84;;;16.52;52.95
26087;BME280;13851;43.434;28.338;2023-02-17T13:36:16;100445.28;;;16.33;54.17
26087;BME280;13851;43.434;28.338;2023-02-17T13:38:56;100523.13;;;16.37;55.76
26087;BME280;13851;43.434;28.338;2023-02-17T13:41:25;100504.44;;;16.46;56.92
26087;BME280;13851;43.434;28.338;2023-02-17T13:43:50;100535.97;;;16.51;59.21
26087;BME280;13851;43.434;28.338;2023-02-17T13:46:24;100437.72;;;15.79;60.98
26087;BME280;13851;43.434;28.338;2023-02-17T13:49:04;100511.06;;;16.17;62.85
26087;BME280;13851;43.434;28.338;2023-02-17T13:51:32;100471.84;;;16.00;64.29
26087;BME280;13851;43.434;28.338;2023-02-17T13:54:06;100520.94;;;16.26;64.88
26087;BME280;13851;43.434;28.338;2023-02-17T13:56:32;100529.28;;;16.04;65.94
26087;BME280;13851;43.434;28.338;2023-02-17T13:59:14;100515.22;;;15.99;68.84
26087;BME280;13851;43.434;28.338;2023-02-17T14:01:44;100525.75;;;15.61;72.96
26087;BME280;13851;43.434;28.338;2023-02-17T14:04:28;100507.75;;;15.50;76.44
26087;BME280;13851;43.434;28.338;2023-02-17T14:06:57;100482.03;;;14.64;80.40
26087;BME280;13851;43.434;28.338;2023-02-17T14:09:29;100432.81;;;14.31;85.55
26087;BME280;13851;43.434;28.338;2023-02-17T14:11:55;100513.50;;;14.70;90.25
26087;BME280;13851;43.434;28.338;2023-02-17T14:14:26;100503.63;;;14.61;93.34
26087;BME280;13851;43.434;28.338;2023-02-17T14:16:59;100536.03;;;14.44;96.23
26087;BME280;13851;43.434;28.338;2023-02-17T14:19:25;100167.16;;;12.43;97.48
26087;BME280;13851;43.434;28.338;2023-02-17T14:24:40;100470.81;;;14.21;100.00
26087;BME280;13851;43.434;28.338;2023-02-17T14:27:07;100457.25;;;14.20;100.00
26087;BME280;13851;43.434;28.338;2023-02-17T14:29:42;100510.56;;;14.56;100.00
26087;BME280;13851;43.434;28.338;2023-02-17T14:37:37;100503.81;;;14.44;100.00
26087;BME280;13851;43.434;28.338;2023-02-17T14:40:05;100521.19;;;14.45;100.00
26087;BME280;13851;43.434;28.338;2023-02-17T14:42:31;100515.47;;;14.46;100.00
26087;BME280;13851;43.434;28.338;2023-02-17T14:44:56;100178.28;;;12.27;100.00